Time;durP1;ratioP1;P1;durP2;ratioP2;P2;SDS_P1;SDS_P2;PMS_P1;PMS_P2;Temp;Humidity;BMP_temperature;BMP_pressure;BME280_temperature;BME280_humidity;BME280_pressure;Samples;Min_cycle;Max_cycle;Signal;HPM_P1;HPM_P2
2022/02/16 00:02:02;;;;;;;4.18;2.22;;;3.20;99.90;;;;;;5093147;28;20220;-76
2022/02/16 00:04:29;;;;;;;3.17;1.63;;;3.20;99.90;;;;;;5093751;28;20203;-75
2022/02/16 00:06:56;;;;;;;3.47;1.58;;;3.20;99.90;;;;;;5079560;28;20228;-76
2022/02/16 00:09:23;;;;;;;4.10;2.00;;;3.20;99.90;;;;;;5073457;28;20211;-75
2022/02/16 00:11:49;;;;;;;2.53;1.60;;;3.20;99.90;;;;;;5073723;28;20204;-74
2022/02/16 00:14:16;;;;;;;2.72;1.90;;;3.30;99.90;;;;;;5073122;28;20212;-76
2022/02/16 00:16:44;;;;;;;2.10;1.52;;;3.20;99.90;;;;;;5073150;28;20224;-76
2022/02/16 00:19:11;;;;;;;2.35;1.60;;;3.20;99.90;;;;;;5073208;28;20235;-76
2022/02/16 00:21:38;;;;;;;3.00;1.80;;;3.20;99.90;;;;;;5072993;28;20274;-77
2022/02/16 00:24:05;;;;;;;3.90;1.25;;;3.20;99.90;;;;;;5072588;28;20213;-76
2022/02/16 00:26:32;;;;;;;3.83;1.50;;;3.20;99.90;;;;;;5073230;28;20227;-76
2022/02/16 00:28:59;;;;;;;2.88;1.45;;;3.20;99.90;;;;;;5072764;28;20208;-76
2022/02/16 00:31:25;;;;;;;1.50;1.20;;;3.20;99.90;;;;;;5073427;28;20192;-76
2022/02/16 00:33:53;;;;;;;4.45;1.77;;;3.20;99.90;;;;;;5072672;28;20200;-76
2022/02/16 00:36:20;;;;;;;4.85;2.00;;;3.30;99.90;;;;;;5073536;28;20228;-76
2022/02/16 00:38:47;;;;;;;2.95;1.80;;;3.30;99.90;;;;;;5072865;28;20204;-76
2022/02/16 00:41:14;;;;;;;2.90;1.65;;;3.30;99.90;;;;;;5072782;28;20216;-77
2022/02/16 00:43:41;;;;;;;2.85;1.88;;;3.40;99.90;;;;;;5072345;28;20550;-77
2022/02/16 00:46:08;;;;;;;2.97;1.80;;;3.40;99.90;;;;;;5072680;28;20226;-76
2022/02/16 00:48:34;;;;;;;2.13;1.40;;;3.40;99.90;;;;;;5073331;28;20237;-76
2022/02/16 00:51:02;;;;;;;1.50;1.30;;;3.50;99.90;;;;;;5072122;28;20554;-76
2022/02/16 00:53:29;;;;;;;2.47;1.67;;;3.50;99.90;;;;;;5072609;28;20204;-76
2022/02/16 00:55:56;;;;;;;4.10;2.20;;;3.50;99.90;;;;;;5072026;28;20252;-76
2022/02/16 00:58:23;;;;;;;3.25;1.60;;;3.50;99.90;;;;;;5072534;28;20295;-76
2022/02/16 01:00:49;;;;;;;1.90;1.30;;;3.50;99.90;;;;;;5072310;28;20228;-76
2022/02/16 01:03:16;;;;;;;4.18;1.90;;;3.50;99.90;;;;;;5072057;28;20203;-76
2022/02/16 01:05:45;;;;;;;3.17;1.25;;;3.50;99.90;;;;;;5072303;28;20220;-76
2022/02/16 01:08:13;;;;;;;3.92;1.67;;;3.60;99.90;;;;;;5072225;28;20205;-76
2022/02/16 01:10:42;;;;;;;2.40;1.77;;;3.60;99.90;;;;;;5072458;28;20205;-76
2022/02/16 01:13:09;;;;;;;4.13;1.55;;;3.60;99.90;;;;;;5071213;28;20204;-76
2022/02/16 01:15:36;;;;;;;2.25;1.40;;;3.70;99.90;;;;;;5072207;28;20660;-77
2022/02/16 01:18:03;;;;;;;3.00;1.98;;;3.70;99.90;;;;;;5071698;28;20200;-76
2022/02/16 01:20:30;;;;;;;2.65;1.90;;;3.70;99.90;;;;;;5072364;28;20560;-76
2022/02/16 01:22:57;;;;;;;2.00;1.70;;;3.70;99.90;;;;;;5071142;28;20223;-76
2022/02/16 01:25:26;;;;;;;2.60;1.50;;;3.70;99.90;;;;;;5072033;28;20207;-76
2022/02/16 01:27:52;;;;;;;2.95;1.52;;;3.70;99.90;;;;;;5071875;28;20668;-76
2022/02/16 01:30:19;;;;;;;1.80;1.23;;;3.70;99.90;;;;;;5071590;28;20200;-76
2022/02/16 01:32:46;;;;;;;2.28;1.73;;;3.70;99.90;;;;;;5071483;28;20694;-76
2022/02/16 01:35:12;;;;;;;2.70;1.80;;;3.70;99.90;;;;;;5071218;28;20216;-76
2022/02/16 01:37:39;;;;;;;2.50;2.00;;;3.70;99.90;;;;;;5071677;28;20228;-76
2022/02/16 01:40:07;;;;;;;2.40;1.60;;;3.70;99.90;;;;;;5071058;28;20561;-76
2022/02/16 01:42:35;;;;;;;3.55;1.20;;;3.70;99.90;;;;;;5071272;28;20592;-76
2022/02/16 01:45:03;;;;;;;2.38;1.67;;;3.70;99.90;;;;;;5071582;28;20200;-76
2022/02/16 01:47:29;;;;;;;2.70;1.90;;;3.70;99.90;;;;;;5071316;28;20220;-76
2022/02/16 01:49:57;;;;;;;3.75;1.90;;;3.70;99.90;;;;;;5071597;28;20707;-76
2022/02/16 01:52:24;;;;;;;2.88;1.42;;;3.80;99.90;;;;;;5070723;28;20201;-76
2022/02/16 01:54:51;;;;;;;3.10;1.70;;;3.80;99.90;;;;;;5071747;28;20200;-77
2022/02/16 01:57:19;;;;;;;4.95;2.08;;;3.80;99.90;;;;;;5070864;28;20569;-77
2022/02/16 01:59:48;;;;;;;3.38;1.50;;;3.80;99.90;;;;;;5071967;28;20215;-76
2022/02/16 02:02:15;;;;;;;4.13;1.88;;;3.80;99.90;;;;;;5069773;28;20216;-76
2022/02/16 02:04:42;;;;;;;2.22;1.20;;;3.80;99.90;;;;;;5071344;28;20675;-76
2022/02/16 02:07:09;;;;;;;2.22;1.42;;;3.80;99.90;;;;;;5070891;28;20232;-76
2022/02/16 02:09:36;;;;;;;2.10;1.60;;;3.80;99.90;;;;;;5070783;28;20231;-76
2022/02/16 02:12:04;;;;;;;3.17;1.55;;;3.80;99.90;;;;;;5070671;28;20553;-77
2022/02/16 02:14:31;;;;;;;2.47;1.50;;;3.90;99.90;;;;;;5070805;28;20208;-76
2022/02/16 02:16:59;;;;;;;3.63;2.75;;;3.90;99.90;;;;;;5071082;28;20224;-76
2022/02/16 02:19:25;;;;;;;2.47;2.22;;;3.90;99.90;;;;;;5070782;28;20234;-76
2022/02/16 02:21:53;;;;;;;2.53;1.55;;;3.90;99.90;;;;;;5070977;28;20231;-76
2022/02/16 02:24:20;;;;;;;2.25;1.23;;;3.90;99.90;;;;;;5070559;28;20210;-77
2022/02/16 02:26:47;;;;;;;2.92;1.25;;;3.90;99.90;;;;;;5070657;28;20225;-76
2022/02/16 02:29:15;;;;;;;2.72;1.60;;;3.90;99.90;;;;;;5070885;28;20595;-76
2022/02/16 02:31:42;;;;;;;2.80;1.42;;;3.90;99.90;;;;;;5071396;28;20717;-75
2022/02/16 02:34:08;;;;;;;3.20;1.52;;;4.00;99.90;;;;;;5070441;28;20207;-76
2022/02/16 02:36:35;;;;;;;1.98;1.65;;;4.00;99.90;;;;;;5070380;28;20228;-76
2022/02/16 02:39:05;;;;;;;2.20;1.60;;;4.00;99.90;;;;;;5070746;28;20212;-76
2022/02/16 02:41:31;;;;;;;3.28;1.52;;;4.00;99.90;;;;;;5070877;28;20259;-76
2022/02/16 02:43:58;;;;;;;1.75;1.38;;;3.90;99.90;;;;;;5070577;28;20207;-76
2022/02/16 02:46:26;;;;;;;3.80;1.70;;;3.90;99.90;;;;;;5070911;28;20319;-76
2022/02/16 02:48:53;;;;;;;1.83;1.58;;;3.90;99.90;;;;;;5070516;28;20236;-76
2022/02/16 02:51:19;;;;;;;2.60;1.20;;;4.00;99.90;;;;;;5070778;28;20207;-76
2022/02/16 02:53:46;;;;;;;5.50;1.42;;;4.00;99.90;;;;;;5070082;28;20227;-76
2022/02/16 02:56:15;;;;;;;1.83;1.42;;;4.00;99.90;;;;;;5070600;28;20227;-76
2022/02/16 02:58:41;;;;;;;2.90;1.85;;;4.00;99.90;;;;;;5071353;28;20212;-76
2022/02/16 03:01:08;;;;;;;4.10;1.35;;;4.10;99.90;;;;;;5072690;28;20207;-76
2022/02/16 03:03:36;;;;;;;3.08;1.23;;;4.10;99.90;;;;;;5072095;28;20204;-76
2022/02/16 03:06:03;;;;;;;2.08;1.30;;;4.10;99.90;;;;;;5072490;28;20259;-77
2022/02/16 03:08:30;;;;;;;3.17;1.60;;;4.10;99.90;;;;;;5072922;28;20207;-76
2022/02/16 03:10:57;;;;;;;1.92;1.25;;;4.10;99.90;;;;;;5073640;28;20200;-76
2022/02/16 03:13:25;;;;;;;1.50;1.10;;;4.10;99.90;;;;;;5069945;28;20196;-76
2022/02/16 03:15:53;;;;;;;1.25;1.15;;;4.10;99.90;;;;;;5070082;28;20224;-76
2022/02/16 03:18:21;;;;;;;1.45;1.30;;;4.10;99.90;;;;;;5070144;28;20200;-76
2022/02/16 03:20:48;;;;;;;1.70;1.30;;;4.10;99.90;;;;;;5069822;28;20459;-78
2022/02/16 03:23:15;;;;;;;2.72;1.40;;;4.10;99.90;;;;;;5069672;28;20220;-76
2022/02/16 03:25:42;;;;;;;1.50;1.13;;;4.10;99.90;;;;;;5070381;28;20220;-76
2022/02/16 03:28:09;;;;;;;6.88;1.40;;;4.10;99.90;;;;;;5070062;28;20200;-76
2022/02/16 03:30:37;;;;;;;1.60;1.40;;;4.10;99.90;;;;;;5070735;28;20217;-75
2022/02/16 03:33:05;;;;;;;4.68;1.10;;;4.10;99.90;;;;;;5069337;28;20200;-76
2022/02/16 03:35:32;;;;;;;5.28;1.23;;;4.20;99.90;;;;;;5070631;28;20197;-76
2022/02/16 03:37:59;;;;;;;2.15;1.50;;;4.20;99.90;;;;;;5069745;28;20204;-76
2022/02/16 03:40:26;;;;;;;3.15;1.33;;;4.20;99.90;;;;;;5070223;28;20200;-76
2022/02/16 03:42:53;;;;;;;1.48;1.27;;;4.30;99.90;;;;;;5069131;28;20216;-76
2022/02/16 03:45:20;;;;;;;2.20;1.33;;;4.30;99.90;;;;;;5070155;28;20222;-77
2022/02/16 03:47:48;;;;;;;2.00;1.10;;;4.30;99.90;;;;;;5070359;28;20211;-76
2022/02/16 03:50:15;;;;;;;1.33;1.13;;;4.30;99.90;;;;;;5069808;28;20311;-76
2022/02/16 03:52:41;;;;;;;2.60;1.27;;;4.30;99.90;;;;;;5069972;28;20197;-76
2022/02/16 03:55:09;;;;;;;1.30;1.10;;;4.30;99.90;;;;;;5069804;28;20208;-76
2022/02/16 03:57:35;;;;;;;1.70;1.00;;;4.30;99.90;;;;;;5070386;28;20228;-76
2022/02/16 04:00:05;;;;;;;1.38;1.20;;;4.40;99.90;;;;;;5070334;28;20267;-76
2022/02/16 04:02:32;;;;;;;5.15;1.00;;;4.40;99.90;;;;;;5069689;28;20252;-76
2022/02/16 04:05:00;;;;;;;3.35;1.00;;;4.50;99.90;;;;;;5069623;28;20200;-76
2022/02/16 04:07:26;;;;;;;1.40;1.08;;;4.50;99.90;;;;;;5070035;28;20220;-76
2022/02/16 04:09:53;;;;;;;2.33;1.15;;;4.50;99.90;;;;;;5070237;28;20196;-76
2022/02/16 04:12:20;;;;;;;1.58;1.08;;;4.50;99.90;;;;;;5069232;28;20204;-76
2022/02/16 04:14:47;;;;;;;1.30;1.13;;;4.60;99.90;;;;;;5070221;28;20211;-75
2022/02/16 04:17:13;;;;;;;2.10;1.00;;;4.60;99.90;;;;;;5069550;28;20228;-75
2022/02/16 04:19:40;;;;;;;2.28;1.23;;;4.60;99.90;;;;;;5071022;28;20311;-75
2022/02/16 04:22:09;;;;;;;1.55;1.15;;;4.70;99.90;;;;;;5069671;28;20227;-76
2022/02/16 04:24:35;;;;;;;1.30;1.00;;;4.60;99.90;;;;;;5070259;28;20200;-75
2022/02/16 04:27:03;;;;;;;2.95;0.90;;;4.70;99.90;;;;;;5073053;28;20235;-76
2022/02/16 04:29:30;;;;;;;1.10;1.00;;;4.70;99.90;;;;;;5077123;28;20286;-75
2022/02/16 04:31:56;;;;;;;1.20;1.08;;;4.70;99.90;;;;;;5075340;28;20195;-77
2022/02/16 04:34:23;;;;;;;1.35;1.00;;;4.70;99.90;;;;;;5072183;28;20356;-77
2022/02/16 04:36:50;;;;;;;1.58;1.10;;;4.80;99.90;;;;;;5081263;28;20552;-76
2022/02/16 04:39:18;;;;;;;2.88;1.60;;;4.80;99.90;;;;;;5083235;28;20203;-76
2022/02/16 04:41:45;;;;;;;1.77;1.30;;;4.80;99.90;;;;;;5083027;28;20679;-76
2022/02/16 04:44:11;;;;;;;1.75;1.02;;;4.80;99.90;;;;;;5080983;28;20203;-75
2022/02/16 04:46:38;;;;;;;2.53;1.20;;;4.80;99.90;;;;;;5083673;28;20211;-75
2022/02/16 04:49:05;;;;;;;2.15;1.10;;;4.80;99.90;;;;;;5083171;28;20192;-76
2022/02/16 04:51:31;;;;;;;2.65;1.20;;;4.80;99.90;;;;;;5081532;28;20192;-76
2022/02/16 04:53:58;;;;;;;1.40;1.00;;;4.80;99.90;;;;;;5080436;28;20188;-76
2022/02/16 04:56:26;;;;;;;2.03;1.27;;;4.80;99.90;;;;;;5072704;28;20243;-76
2022/02/16 04:58:53;;;;;;;2.35;1.08;;;4.80;99.90;;;;;;5073454;28;20214;-75
2022/02/16 05:01:20;;;;;;;2.00;1.00;;;4.80;99.90;;;;;;5073085;28;20208;-75
2022/02/16 05:03:47;;;;;;;1.20;1.10;;;4.80;99.90;;;;;;5073078;28;20250;-75
2022/02/16 05:06:14;;;;;;;2.15;1.08;;;4.80;99.90;;;;;;5073373;28;20224;-75
2022/02/16 05:08:41;;;;;;;1.23;0.90;;;4.80;99.90;;;;;;5073315;28;20204;-76
2022/02/16 05:11:07;;;;;;;1.85;1.00;;;4.70;99.90;;;;;;5073171;28;20200;-75
2022/02/16 05:13:36;;;;;;;2.47;1.00;;;4.80;99.90;;;;;;5072416;28;20208;-76
2022/02/16 05:16:04;;;;;;;1.00;0.90;;;4.80;99.90;;;;;;5072803;28;20259;-75
2022/02/16 05:18:33;;;;;;;2.03;1.60;;;4.80;99.90;;;;;;5072579;28;20216;-76
2022/02/16 05:20:59;;;;;;;1.45;1.27;;;4.90;99.90;;;;;;5072643;28;20208;-75
2022/02/16 05:23:26;;;;;;;1.00;0.80;;;4.80;99.90;;;;;;5082630;28;20212;-76
2022/02/16 05:25:54;;;;;;;1.38;1.27;;;4.80;99.90;;;;;;5084614;28;20958;-76
2022/02/16 05:28:21;;;;;;;1.13;1.00;;;4.80;99.90;;;;;;5092671;28;20202;-76
2022/02/16 05:30:49;;;;;;;0.98;0.88;;;4.90;99.90;;;;;;5090608;28;20286;-76
2022/02/16 05:33:16;;;;;;;1.20;0.90;;;4.90;99.90;;;;;;5091065;28;20196;-77
2022/02/16 05:35:45;;;;;;;1.10;1.00;;;4.90;99.90;;;;;;5091714;28;20227;-76
2022/02/16 05:38:12;;;;;;;0.98;0.88;;;4.90;99.90;;;;;;5090665;28;20208;-76
2022/02/16 05:40:38;;;;;;;1.23;1.00;;;4.90;99.90;;;;;;5092100;28;20207;-76
2022/02/16 05:43:05;;;;;;;1.17;0.90;;;4.90;99.90;;;;;;5091050;28;20611;-75
2022/02/16 05:45:32;;;;;;;1.10;1.00;;;4.90;99.90;;;;;;5092855;28;20203;-76
2022/02/16 05:48:00;;;;;;;1.30;1.15;;;4.90;99.90;;;;;;5092212;28;20690;-76
2022/02/16 05:50:26;;;;;;;1.27;1.02;;;4.90;99.90;;;;;;5092747;28;20210;-76
2022/02/16 05:52:53;;;;;;;0.80;0.80;;;4.90;99.90;;;;;;5092223;28;20693;-75
2022/02/16 05:55:20;;;;;;;1.20;0.98;;;4.80;99.90;;;;;;5092457;28;20712;-76
2022/02/16 05:57:47;;;;;;;1.55;1.10;;;4.80;99.90;;;;;;5106292;22;20605;-91
2022/02/16 06:00:19;;;;;;;1.52;0.90;;;4.90;99.90;;;;;;5053067;28;20216;-91
2022/02/16 06:02:46;;;;;;;1.48;0.90;;;4.90;99.90;;;;;;5056423;28;20225;-91
2022/02/16 06:05:14;;;;;;;1.30;0.95;;;4.90;99.90;;;;;;5056086;28;20201;-91
2022/02/16 06:07:41;;;;;;;1.48;1.10;;;4.90;99.90;;;;;;5059979;28;20287;-90
2022/02/16 06:10:09;;;;;;;1.05;0.95;;;4.90;99.90;;;;;;5065568;28;20201;-91
2022/02/16 06:12:39;;;;;;;2.53;0.90;;;4.90;99.90;;;;;;5074240;28;20184;-91
2022/02/16 06:15:06;;;;;;;1.80;0.90;;;4.90;99.90;;;;;;5064191;28;20204;-92
2022/02/16 06:17:33;;;;;;;3.20;3.00;;;4.90;99.90;;;;;;5062034;28;20211;-91
2022/02/16 06:20:00;;;;;;;1.83;1.10;;;4.90;99.90;;;;;;5059201;28;20206;-90
2022/02/16 06:22:31;;;;;;;0.95;0.80;;;4.90;99.90;;;;;;5055362;28;20205;-90
2022/02/16 06:24:59;;;;;;;1.10;1.00;;;4.90;99.90;;;;;;5055725;28;20204;-89
2022/02/16 06:27:26;;;;;;;2.45;1.13;;;4.90;99.90;;;;;;5054777;28;20197;-89
2022/02/16 06:29:52;;;;;;;0.80;0.70;;;4.90;99.90;;;;;;5055282;28;20217;-90
2022/02/16 06:32:19;;;;;;;1.70;0.93;;;4.90;99.90;;;;;;5053732;28;20205;-89
2022/02/16 06:34:46;;;;;;;1.45;0.90;;;5.00;99.90;;;;;;5053277;28;20701;-89
2022/02/16 06:37:13;;;;;;;1.27;1.00;;;5.00;99.90;;;;;;5054304;28;20213;-90
2022/02/16 06:39:41;;;;;;;3.17;1.00;;;5.10;99.90;;;;;;5054601;28;20224;-90
2022/02/16 06:42:08;;;;;;;1.65;0.90;;;5.10;99.90;;;;;;5054927;28;20201;-90
2022/02/16 06:44:35;;;;;;;1.95;1.02;;;5.00;99.90;;;;;;5055747;28;20221;-90
2022/02/16 06:47:01;;;;;;;1.05;0.95;;;5.00;99.90;;;;;;5055703;28;20208;-90
2022/02/16 06:49:28;;;;;;;1.73;0.70;;;5.00;99.90;;;;;;5053619;28;20225;-90
2022/02/16 06:51:55;;;;;;;1.05;0.95;;;5.00;99.90;;;;;;5054372;28;20205;-89
2022/02/16 06:54:22;;;;;;;1.50;0.90;;;5.10;99.90;;;;;;5053805;28;20663;-90
2022/02/16 06:56:50;;;;;;;1.33;1.00;;;5.10;99.90;;;;;;5053211;28;20215;-90
2022/02/16 06:59:17;;;;;;;1.10;1.00;;;5.10;99.90;;;;;;5053916;28;20229;-90
2022/02/16 07:01:43;;;;;;;1.58;1.10;;;5.10;99.90;;;;;;5063621;28;20196;-89
2022/02/16 07:04:10;;;;;;;1.00;0.95;;;5.00;99.90;;;;;;5062003;28;20217;-90
2022/02/16 07:06:37;;;;;;;1.20;1.00;;;5.00;99.90;;;;;;5054519;28;20227;-89
2022/02/16 07:09:05;;;;;;;1.48;1.10;;;5.00;99.90;;;;;;5059627;28;20304;-89
2022/02/16 07:11:31;;;;;;;1.15;0.90;;;5.00;99.90;;;;;;5053128;28;20209;-89
2022/02/16 07:14:00;;;;;;;1.10;1.00;;;5.00;99.90;;;;;;5052311;28;20205;-90
2022/02/16 07:16:27;;;;;;;1.00;0.90;;;5.00;99.90;;;;;;5052342;28;20201;-90
2022/02/16 07:18:53;;;;;;;2.50;1.17;;;5.00;99.90;;;;;;5052038;28;20217;-90
2022/02/16 07:21:23;;;;;;;1.65;1.10;;;5.10;99.90;;;;;;5053121;28;20196;-90
2022/02/16 07:23:50;;;;;;;2.05;1.08;;;5.10;99.90;;;;;;5051882;28;20217;-89
2022/02/16 07:26:17;;;;;;;1.45;1.00;;;5.10;99.90;;;;;;5053148;28;20200;-91
2022/02/16 07:28:44;;;;;;;2.42;1.65;;;5.10;99.90;;;;;;5054454;28;20232;-89
2022/02/16 07:31:16;;;;;;;2.28;1.05;;;5.10;99.90;;;;;;5055028;28;20197;-90
2022/02/16 07:33:46;;;;;;;1.10;1.00;;;5.10;99.90;;;;;;5054606;28;20204;-90
2022/02/16 07:36:15;;;;;;;1.80;1.20;;;5.10;99.90;;;;;;5054662;28;20208;-90
2022/02/16 07:38:45;;;;;;;2.08;1.00;;;5.10;99.90;;;;;;5053792;28;20220;-90
2022/02/16 07:41:13;;;;;;;1.48;1.00;;;5.10;99.90;;;;;;5057847;28;20201;-89
2022/02/16 07:43:40;;;;;;;2.85;1.00;;;5.10;99.90;;;;;;5053006;28;20248;-92
2022/02/16 07:46:09;;;;;;;1.02;0.93;;;5.10;99.90;;;;;;5054738;28;20205;-91
2022/02/16 07:48:58;;;;;;;1.25;1.13;;;5.10;99.90;;;;;;5054842;28;20244;-90
2022/02/16 07:51:32;;;;;;;2.75;1.10;;;5.10;99.90;;;;;;5060060;28;20292;-90
2022/02/16 07:53:59;;;;;;;1.35;1.05;;;5.10;99.90;;;;;;5058944;28;20239;-92
2022/02/16 07:56:27;;;;;;;1.55;1.20;;;5.10;99.90;;;;;;5059512;28;20201;-91
2022/02/16 07:58:55;;;;;;;1.65;1.05;;;5.10;99.90;;;;;;5059507;28;20694;-90
2022/02/16 08:01:22;;;;;;;2.85;1.20;;;5.10;99.90;;;;;;5061991;28;20201;-92
2022/02/16 08:03:50;;;;;;;1.60;1.30;;;5.10;99.90;;;;;;5061633;28;20227;-91
2022/02/16 08:06:17;;;;;;;1.27;1.10;;;5.10;99.90;;;;;;5062770;28;20209;-90
2022/02/16 08:08:44;;;;;;;3.90;1.50;;;5.10;99.90;;;;;;5059479;28;20224;-89
2022/02/16 08:11:11;;;;;;;1.30;1.05;;;5.10;99.90;;;;;;5059962;28;20258;-89
2022/02/16 08:13:38;;;;;;;1.83;1.20;;;5.10;99.90;;;;;;5061886;28;20291;-89
2022/02/16 08:16:07;;;;;;;1.50;1.10;;;5.10;99.90;;;;;;5062120;28;20228;-88
2022/02/16 08:18:33;;;;;;;1.20;1.10;;;5.10;99.90;;;;;;5080001;28;20240;-88
2022/02/16 08:21:02;;;;;;;1.50;1.30;;;5.20;99.90;;;;;;5066075;28;20197;-88
2022/02/16 08:23:30;;;;;;;1.45;0.90;;;5.20;99.90;;;;;;5063757;28;20220;-87
2022/02/16 08:25:57;;;;;;;1.35;1.23;;;5.20;99.90;;;;;;5062194;28;20211;-89
2022/02/16 08:28:24;;;;;;;1.23;1.13;;;5.10;99.90;;;;;;5063098;28;20204;-89
2022/02/16 08:30:53;;;;;;;2.45;1.13;;;5.10;99.90;;;;;;5060125;28;20209;-89
2022/02/16 08:33:37;;;;;;;1.60;1.40;;;5.10;99.90;;;;;;5060061;28;20260;-89
2022/02/16 08:36:07;;;;;;;1.95;1.10;;;5.10;99.90;;;;;;5059632;28;20553;-90
2022/02/16 08:38:36;;;;;;;2.00;1.70;;;5.00;99.90;;;;;;5060856;28;20213;-90
2022/02/16 08:41:05;;;;;;;1.30;1.08;;;5.10;99.90;;;;;;5067658;28;20473;-89
2022/02/16 08:43:32;;;;;;;3.38;1.40;;;5.10;99.90;;;;;;5065945;28;20304;-89
2022/02/16 08:46:04;;;;;;;1.27;1.08;;;5.10;99.90;;;;;;5067467;28;20272;-89
2022/02/16 08:49:19;;;;;;;;;;;;;;;;;;;;;
2022/02/16 08:51:53;;;;;;;2.10;1.10;;;5.10;99.90;;;;;;5059671;28;20231;-91
2022/02/16 08:57:12;;;;;;;1.65;1.23;;;5.00;99.90;;;;;;5061656;28;20197;-90
2022/02/16 08:59:54;;;;;;;1.30;1.20;;;5.00;99.90;;;;;;5061604;28;20359;-92
2022/02/16 09:02:21;;;;;;;1.15;1.05;;;5.10;99.90;;;;;;5062340;28;20650;-91
2022/02/16 09:04:51;;;;;;;1.50;1.40;;;5.00;99.90;;;;;;5064564;28;20217;-89
2022/02/16 09:07:31;;;;;;;1.33;0.98;;;5.00;99.90;;;;;;5069595;28;20220;-90
2022/02/16 09:10:01;;;;;;;2.83;1.20;;;5.00;99.90;;;;;;5063899;28;20211;-91
2022/02/16 09:12:29;;;;;;;1.63;1.15;;;4.90;99.90;;;;;;5060466;28;20211;-91
2022/02/16 09:14:56;;;;;;;2.88;0.90;;;4.90;99.90;;;;;;5060036;28;20255;-90
2022/02/16 09:17:24;;;;;;;1.40;1.00;;;4.90;99.90;;;;;;5059903;28;20211;-91
2022/02/16 09:19:52;;;;;;;1.63;1.10;;;4.90;99.90;;;;;;5058268;28;20236;-90
2022/02/16 09:22:22;;;;;;;1.15;1.05;;;5.00;99.90;;;;;;5057924;28;20213;-90
2022/02/16 09:24:49;;;;;;;1.27;0.90;;;5.00;99.90;;;;;;5058266;28;20257;-88
2022/02/16 09:27:19;;;;;;;1.30;1.13;;;5.10;99.90;;;;;;5059977;28;20209;-90
2022/02/16 09:29:46;;;;;;;1.02;0.90;;;5.10;99.90;;;;;;5059880;28;20312;-91
2022/02/16 09:32:14;;;;;;;1.88;1.25;;;5.20;99.90;;;;;;5061579;28;20216;-90
2022/02/16 09:34:43;;;;;;;2.85;1.15;;;5.30;99.90;;;;;;5069449;28;20195;-93
2022/02/16 09:37:10;;;;;;;1.08;0.98;;;5.30;99.90;;;;;;5076029;28;20197;-93
2022/02/16 09:42:46;;;;;;;1.00;0.90;;;5.40;99.90;;;;;;5050356;28;20236;-93
2022/02/16 09:45:24;;;;;;;1.10;0.90;;;5.40;99.90;;;;;;5050545;28;20225;-93
2022/02/16 09:47:53;;;;;;;0.80;0.80;;;5.50;99.90;;;;;;5042914;28;20217;-91
2022/02/16 09:50:22;;;;;;;1.10;0.85;;;5.50;99.90;;;;;;5037198;28;20296;-91
2022/02/16 09:52:50;;;;;;;1.05;0.95;;;5.60;99.90;;;;;;5036162;28;20202;-91
2022/02/16 09:55:18;;;;;;;1.65;0.80;;;5.70;99.90;;;;;;5037835;28;20627;-91
2022/02/16 09:57:45;;;;;;;0.90;0.80;;;5.80;99.90;;;;;;5039484;28;20629;-91
2022/02/16 10:00:15;;;;;;;1.77;1.00;;;5.90;99.90;;;;;;5049496;28;20205;-91
2022/02/16 10:02:45;;;;;;;1.20;1.10;;;5.90;99.90;;;;;;5052941;28;20637;-89
2022/02/16 10:05:15;;;;;;;0.75;0.70;;;5.90;99.90;;;;;;5060261;28;20217;-91
2022/02/16 10:07:44;;;;;;;1.50;0.90;;;6.10;99.90;;;;;;5070847;28;20195;-91
2022/02/16 10:10:36;;;;;;;1.10;1.00;;;6.10;99.90;;;;;;5077759;28;20261;-91
2022/02/16 10:13:04;;;;;;;1.48;1.10;;;6.20;99.90;;;;;;5105649;22;20318;-75
2022/02/16 10:15:43;;;;;;;0.98;0.85;;;6.20;99.90;;;;;;5091558;28;20555;-75
2022/02/16 10:18:13;;;;;;;1.10;0.90;;;6.20;99.90;;;;;;5090571;28;20231;-76
2022/02/16 10:20:41;;;;;;;0.80;0.75;;;6.20;99.90;;;;;;5091444;28;20286;-76
2022/02/16 10:23:07;;;;;;;1.05;0.95;;;6.20;99.90;;;;;;5089353;28;20207;-76
2022/02/16 10:25:36;;;;;;;1.20;0.80;;;6.30;99.90;;;;;;5091340;28;20223;-76
2022/02/16 10:28:12;;;;;;;1.23;0.95;;;6.30;99.90;;;;;;5090253;28;20560;-75
2022/02/16 10:33:25;;;;;;;1.00;0.80;;;6.40;99.90;;;;;;5091341;28;20577;-74
2022/02/16 10:36:01;;;;;;;1.15;0.93;;;6.50;99.90;;;;;;5083894;28;20220;-75
2022/02/16 10:38:28;;;;;;;1.00;0.90;;;6.50;99.90;;;;;;5068898;28;20204;-75
2022/02/16 10:41:06;;;;;;;1.00;0.80;;;6.60;99.90;;;;;;5069466;28;20223;-75
2022/02/16 10:43:35;;;;;;;1.17;1.00;;;6.70;99.90;;;;;;5069203;28;20207;-75
2022/02/16 10:46:02;;;;;;;0.95;0.85;;;6.70;99.90;;;;;;5069146;28;20255;-76
2022/02/16 10:48:29;;;;;;;0.80;0.70;;;6.80;99.90;;;;;;5071274;28;20295;-75
2022/02/16 10:50:57;;;;;;;1.00;0.80;;;6.90;99.90;;;;;;5069530;28;20287;-74
2022/02/16 10:53:27;;;;;;;2.05;0.90;;;7.00;99.90;;;;;;5069227;28;20206;-74
2022/02/16 10:55:54;;;;;;;1.30;0.90;;;7.20;99.90;;;;;;5068751;28;20266;-74
2022/02/16 10:58:25;;;;;;;0.98;0.88;;;7.30;99.90;;;;;;5069389;28;20201;-75
2022/02/16 11:00:53;;;;;;;1.15;0.95;;;7.50;99.90;;;;;;5069544;28;20211;-76
2022/02/16 11:03:25;;;;;;;0.90;0.70;;;7.90;99.90;;;;;;5069354;28;20200;-73
2022/02/16 11:05:54;;;;;;;0.90;0.80;;;8.80;99.90;;;;;;5068380;28;20259;-74
2022/02/16 11:08:23;;;;;;;1.10;1.00;;;9.60;99.90;;;;;;5069203;28;20232;-73
2022/02/16 11:10:50;;;;;;;1.10;1.00;;;10.10;99.90;;;;;;5068851;28;20207;-73
2022/02/16 11:13:21;;;;;;;1.15;0.80;;;10.30;99.90;;;;;;5068872;28;20214;-74
2022/02/16 11:15:49;;;;;;;1.85;0.90;;;10.60;99.90;;;;;;5069529;28;20244;-75
2022/02/16 11:18:19;;;;;;;0.90;0.80;;;10.30;99.90;;;;;;5069279;28;20208;-75
2022/02/16 11:21:05;;;;;;;0.98;0.88;;;9.90;99.90;;;;;;5069471;28;20196;-74
2022/02/16 11:23:42;;;;;;;1.10;1.00;;;10.00;99.90;;;;;;5069158;28;20215;-75
2022/02/16 11:26:34;;;;;;;0.90;0.75;;;10.70;99.90;;;;;;5069050;28;20273;-76
2022/02/16 11:29:05;;;;;;;0.85;0.75;;;10.70;99.90;;;;;;5069156;28;20574;-75
2022/02/16 11:31:37;;;;;;;0.90;0.80;;;10.40;99.90;;;;;;5069475;28;20265;-76
2022/02/16 11:34:15;;;;;;;1.63;0.98;;;10.30;99.90;;;;;;5068803;28;20206;-76
2022/02/16 11:36:53;;;;;;;1.10;1.00;;;10.20;99.90;;;;;;5072688;28;20227;-75
2022/02/16 11:39:42;;;;;;;1.33;1.02;;;10.40;99.90;;;;;;5073265;28;20212;-75
2022/02/16 11:42:12;;;;;;;1.00;0.90;;;11.10;99.90;;;;;;5072286;28;20270;-76
2022/02/16 11:45:04;;;;;;;1.75;0.93;;;11.70;99.90;;;;;;5073238;28;20238;-75
2022/02/16 11:47:52;;;;;;;1.23;0.80;;;12.20;99.90;;;;;;5048491;28;20730;-76
2022/02/16 11:50:41;;;;;;;1.08;0.80;;;12.10;99.90;;;;;;5072945;28;20683;-76
2022/02/16 11:53:11;;;;;;;1.10;1.00;;;11.80;99.90;;;;;;5072175;28;20208;-77
2022/02/16 11:55:40;;;;;;;0.90;0.80;;;11.40;99.90;;;;;;5081615;28;20199;-75
2022/02/16 11:58:15;;;;;;;2.45;0.90;;;10.90;99.90;;;;;;5093472;28;20208;-75
2022/02/16 12:00:44;;;;;;;0.90;0.70;;;10.40;99.90;;;;;;5093417;28;20852;-75
2022/02/16 12:03:22;;;;;;;1.02;0.93;;;10.20;99.90;;;;;;5092608;28;20405;-75
2022/02/16 12:06:11;;;;;;;1.30;0.80;;;10.00;99.90;;;;;;5092140;28;20227;-75
2022/02/16 12:08:44;;;;;;;1.20;0.90;;;9.90;99.90;;;;;;5093380;28;20847;-75
2022/02/16 12:11:23;;;;;;;1.33;0.90;;;9.70;99.90;;;;;;5092842;28;20206;-76
2022/02/16 12:13:54;;;;;;;1.00;0.90;;;9.60;99.90;;;;;;5092431;28;20203;-76
2022/02/16 12:16:25;;;;;;;1.02;0.90;;;9.40;99.90;;;;;;5092130;28;20218;-75
2022/02/16 12:18:54;;;;;;;0.90;0.80;;;9.40;99.90;;;;;;5092886;28;20210;-75
2022/02/16 12:21:25;;;;;;;0.98;0.88;;;9.40;99.90;;;;;;5093789;28;20512;-75
2022/02/16 12:23:59;;;;;;;1.10;0.70;;;9.30;99.90;;;;;;5092513;28;20215;-75
2022/02/16 12:26:27;;;;;;;1.42;0.70;;;9.20;99.90;;;;;;5092471;28;20652;-75
2022/02/16 12:29:00;;;;;;;1.55;0.75;;;9.10;99.90;;;;;;5092675;28;20234;-76
2022/02/16 12:31:29;;;;;;;0.98;0.77;;;9.00;99.90;;;;;;5093411;28;20222;-75
2022/02/16 12:34:01;;;;;;;0.80;0.70;;;9.00;99.90;;;;;;5091360;28;20581;-75
2022/02/16 12:36:29;;;;;;;1.00;0.90;;;9.00;99.90;;;;;;5092933;28;20274;-75
2022/02/16 12:38:58;;;;;;;1.17;0.90;;;8.90;99.90;;;;;;5092758;28;20199;-75
2022/02/16 12:41:25;;;;;;;1.23;1.00;;;8.80;99.90;;;;;;5092593;28;20207;-75
2022/02/16 12:43:58;;;;;;;1.05;0.85;;;8.70;99.90;;;;;;5092539;28;20199;-76
2022/02/16 12:46:26;;;;;;;1.75;0.77;;;8.60;99.90;;;;;;5090990;28;20228;-75
2022/02/16 12:48:54;;;;;;;1.15;1.05;;;8.60;99.90;;;;;;5091823;28;20693;-75
2022/02/16 12:51:25;;;;;;;1.20;0.80;;;8.70;99.90;;;;;;5092359;28;20202;-76
2022/02/16 12:53:52;;;;;;;1.23;0.90;;;8.80;99.90;;;;;;5091629;28;20207;-76
2022/02/16 12:56:20;;;;;;;0.80;0.70;;;8.80;99.90;;;;;;5091439;28;20215;-76
2022/02/16 12:58:47;;;;;;;1.13;0.85;;;8.90;99.90;;;;;;5091719;28;20305;-75
2022/02/16 13:01:15;;;;;;;0.93;0.80;;;9.00;99.90;;;;;;5091980;28;20200;-76
2022/02/16 13:03:42;;;;;;;1.35;0.80;;;9.00;99.90;;;;;;5091561;28;20215;-76
2022/02/16 13:06:09;;;;;;;1.00;0.80;;;9.00;99.90;;;;;;5091134;28;20232;-75
2022/02/16 13:08:38;;;;;;;1.00;0.90;;;9.00;99.90;;;;;;5092449;28;20200;-76
2022/02/16 13:11:05;;;;;;;0.80;0.77;;;9.00;99.90;;;;;;5090739;28;20622;-75
2022/02/16 13:13:34;;;;;;;1.13;0.80;;;9.00;99.90;;;;;;5091954;28;20246;-76
2022/02/16 13:16:02;;;;;;;1.00;0.80;;;9.10;99.90;;;;;;5091355;28;20303;-75